createdAt,value
2018-09-02T00:01:55.279Z,3.75
2018-09-02T00:04:24.615Z,3.50
2018-09-02T00:07:00.563Z,3.98
2018-09-02T00:09:35.682Z,4.05
2018-09-02T00:12:17.467Z,4.30
2018-09-02T00:14:49.270Z,4.20
2018-09-02T00:17:20.123Z,4.45
2018-09-02T00:19:53.115Z,3.80
2018-09-02T00:22:21.816Z,3.90
2018-09-02T00:24:54.821Z,3.70
2018-09-02T00:27:23.815Z,3.30
2018-09-02T00:29:56.125Z,3.30
2018-09-02T00:32:25.201Z,3.27
2018-09-02T00:35:01.180Z,3.00
2018-09-02T00:37:30.255Z,3.40
2018-09-02T00:39:58.892Z,3.77
2018-09-02T00:42:32.860Z,3.45
2018-09-02T00:45:02.334Z,3.40
2018-09-02T00:47:34.584Z,3.30
2018-09-02T00:50:06.684Z,3.50
2018-09-02T00:52:38.061Z,3.20
2018-09-02T00:55:14.315Z,3.58
2018-09-02T01:00:25.916Z,3.40
2018-09-02T01:02:54.702Z,4.08
2018-09-02T01:05:26.820Z,3.40
2018-09-02T01:08:02.744Z,3.92
2018-09-02T01:10:37.028Z,3.85
2018-09-02T01:13:12.752Z,3.80
2018-09-02T01:15:41.937Z,3.55
2018-09-02T01:18:11.829Z,3.72
2018-09-02T01:20:43.861Z,3.95
2018-09-02T01:23:17.960Z,4.25
2018-09-02T01:25:50.823Z,4.00
2018-09-02T01:28:19.998Z,4.00
2018-09-02T01:30:50.861Z,4.47
2018-09-02T01:33:19.511Z,4.58
2018-09-02T01:35:51.733Z,4.85
2018-09-02T01:38:21.067Z,5.20
2018-09-02T01:40:53.044Z,5.05
2018-09-02T01:43:21.596Z,4.72
2018-09-02T01:45:54.697Z,5.08
2018-09-02T01:48:24.866Z,5.30
2018-09-02T01:50:54.237Z,5.45
2018-09-02T01:53:25.092Z,5.65
2018-09-02T01:55:53.731Z,5.47
2018-09-02T01:58:22.428Z,5.50
2018-09-02T02:00:52.385Z,6.03
2018-09-02T02:03:20.970Z,6.20
2018-09-02T02:05:51.870Z,6.17
2018-09-02T02:08:20.434Z,5.55
2018-09-02T02:10:56.078Z,5.95
2018-09-02T02:13:24.929Z,6.60
2018-09-02T02:16:00.460Z,6.20
2018-09-02T02:18:29.081Z,5.80
2018-09-02T02:20:59.435Z,6.75
2018-09-02T02:23:28.092Z,6.05
2018-09-02T02:25:59.193Z,6.65
2018-09-02T02:28:27.949Z,6.70
2018-09-02T02:30:59.837Z,6.95
2018-09-02T02:33:28.420Z,7.50
2018-09-02T02:36:06.956Z,7.57
2018-09-02T02:38:38.330Z,6.83
2018-09-02T02:41:19.795Z,8.50
2018-09-02T02:43:49.286Z,8.43
2018-09-02T02:46:17.911Z,7.20
2018-09-02T02:48:46.519Z,6.62
2018-09-02T02:51:16.434Z,7.20
2018-09-02T02:53:47.185Z,4.67
2018-09-02T02:56:22.623Z,5.80
2018-09-02T02:58:54.936Z,5.92
2018-09-02T03:01:23.806Z,5.20
2018-09-02T03:03:56.335Z,4.77
2018-09-02T03:06:25.975Z,4.30
2018-09-02T03:08:58.109Z,3.90
2018-09-02T03:11:27.130Z,4.70
2018-09-02T03:13:58.006Z,4.67
2018-09-02T03:16:26.656Z,5.00
2018-09-02T03:18:58.220Z,5.42
2018-09-02T03:21:29.702Z,5.30
2018-09-02T03:24:01.342Z,6.50
2018-09-02T03:26:30.043Z,6.40
2018-09-02T03:29:01.331Z,6.67
2018-09-02T03:31:30.127Z,6.87
2018-09-02T03:33:58.922Z,7.08
2018-09-02T03:36:32.683Z,6.78
2018-09-02T03:39:01.963Z,6.78
2018-09-02T03:41:31.279Z,6.50
2018-09-02T03:44:01.570Z,6.58
2018-09-02T03:46:31.197Z,6.50
2018-09-02T03:48:59.895Z,7.40
2018-09-02T03:51:31.903Z,7.22
2018-09-02T03:54:00.608Z,7.67
2018-09-02T03:56:32.698Z,7.90
2018-09-02T03:59:03.450Z,8.40
2018-09-02T04:01:34.601Z,8.60
2018-09-02T04:04:05.891Z,7.55
2018-09-02T04:06:35.784Z,7.12
2018-09-02T04:09:14.429Z,6.87
2018-09-02T04:11:43.198Z,7.22
2018-09-02T04:14:12.641Z,7.30
2018-09-02T04:16:41.408Z,7.28
2018-09-02T04:19:16.495Z,7.50
2018-09-02T04:21:45.109Z,6.50
2018-09-02T04:24:18.664Z,7.05
2018-09-02T04:26:49.531Z,7.28
2018-09-02T04:29:18.161Z,7.28
2018-09-02T04:31:47.559Z,7.28
2018-09-02T04:34:16.940Z,7.10
2018-09-02T04:36:45.508Z,7.95
2018-09-02T04:39:17.480Z,8.38
2018-09-02T04:41:46.855Z,8.58
2018-09-02T04:44:15.470Z,9.30
2018-09-02T04:46:44.090Z,8.25
2018-09-02T04:49:23.099Z,7.25
2018-09-02T04:51:59.452Z,7.30
2018-09-02T04:54:33.172Z,7.05
2018-09-02T04:57:04.167Z,8.15
2018-09-02T04:59:35.866Z,8.45
2018-09-02T05:02:18.799Z,7.00
2018-09-02T05:04:50.062Z,7.30
2018-09-02T05:07:18.728Z,6.95
2018-09-02T05:09:51.348Z,6.80
2018-09-02T05:12:20.241Z,7.15
2018-09-02T05:14:52.120Z,6.17
2018-09-02T05:17:21.869Z,5.70
2018-09-02T05:19:52.369Z,7.65
2018-09-02T05:22:21.056Z,7.37
2018-09-02T05:24:51.037Z,6.60
2018-09-02T05:27:20.240Z,7.03
2018-09-02T05:29:56.323Z,6.67
2018-09-02T05:32:33.008Z,6.78
2018-09-02T05:35:02.796Z,7.53
2018-09-02T05:37:32.937Z,8.10
2018-09-02T05:40:12.319Z,7.75
2018-09-02T05:42:45.240Z,7.77
2018-09-02T05:47:56.572Z,6.75
2018-09-02T05:50:33.966Z,6.78
2018-09-02T05:53:10.459Z,7.15
2018-09-02T05:55:46.529Z,7.05
2018-09-02T05:58:15.145Z,6.95
2018-09-02T06:03:41.739Z,7.72
2018-09-02T06:06:17.242Z,6.80
2018-09-02T06:08:46.830Z,7.58
2018-09-02T06:11:24.268Z,7.60
2018-09-02T06:13:53.050Z,8.00
2018-09-02T06:16:21.847Z,8.03
2018-09-02T06:18:57.219Z,8.18
2018-09-02T06:21:26.683Z,7.80
2018-09-02T06:23:55.576Z,8.15
2018-09-02T06:26:24.282Z,7.70
2018-09-02T06:28:55.207Z,8.25
2018-09-02T06:31:24.019Z,7.83
2018-09-02T06:33:53.080Z,7.08
2018-09-02T06:36:21.868Z,8.85
2018-09-02T06:38:53.155Z,7.47
2018-09-02T06:41:21.950Z,8.33
2018-09-02T06:43:50.762Z,8.70
2018-09-02T06:46:19.579Z,9.13
2018-09-02T06:48:48.535Z,8.20
2018-09-02T06:51:17.462Z,8.00
2018-09-02T06:53:46.353Z,8.00
2018-09-02T06:56:15.066Z,8.20
2018-09-02T06:58:43.971Z,7.75
2018-09-02T07:01:12.703Z,8.60
2018-09-02T07:03:41.370Z,7.47
2018-09-02T07:06:10.121Z,7.53
2018-09-02T07:08:38.969Z,7.70
2018-09-02T07:11:08.415Z,8.58
2018-09-02T07:13:37.732Z,8.40
2018-09-02T07:16:07.361Z,8.30
2018-09-02T07:18:52.366Z,8.23
2018-09-02T07:21:21.864Z,8.30
2018-09-02T07:23:50.548Z,8.63
2018-09-02T07:26:20.167Z,8.03
2018-09-02T07:28:49.337Z,8.00
2018-09-02T07:31:28.229Z,7.58
2018-09-02T07:33:57.414Z,7.28
2018-09-02T07:36:29.420Z,7.33
2018-09-02T07:39:01.528Z,7.47
2018-09-02T07:41:40.278Z,7.90
2018-09-02T07:44:18.375Z,7.85
2018-09-02T07:46:47.326Z,7.72
2018-09-02T07:49:26.244Z,6.95
2018-09-02T07:51:56.373Z,8.00
2018-09-02T07:54:28.644Z,8.28
2018-09-02T07:57:02.689Z,7.78
2018-09-02T07:59:33.313Z,8.20
2018-09-02T08:02:03.597Z,7.83
2018-09-02T08:04:39.416Z,8.05
2018-09-02T08:07:15.582Z,7.53
2018-09-02T08:09:45.524Z,9.85
2018-09-02T08:12:14.485Z,7.80
2018-09-02T08:14:50.160Z,7.62
2018-09-02T08:17:22.121Z,7.12
2018-09-02T08:19:51.498Z,7.30
2018-09-02T08:22:20.666Z,7.00
2018-09-02T08:24:49.630Z,7.10
2018-09-02T08:27:22.570Z,7.60
2018-09-02T08:29:57.801Z,8.08
2018-09-02T08:32:26.598Z,7.95
2018-09-02T08:34:55.334Z,7.62
2018-09-02T08:37:24.325Z,6.87
2018-09-02T08:39:53.223Z,6.10
2018-09-02T08:42:27.606Z,7.42
2018-09-02T08:44:57.499Z,6.25
2018-09-02T08:48:55.679Z,7.17
2018-09-02T08:51:24.543Z,7.87
2018-09-02T08:53:53.365Z,8.03
2018-09-02T08:56:39.691Z,6.83
2018-09-02T08:59:11.310Z,6.92
2018-09-02T09:01:50.642Z,7.12
2018-09-02T09:04:22.708Z,6.65
2018-09-02T09:06:51.899Z,7.30
2018-09-02T09:09:22.473Z,7.28
2018-09-02T09:11:52.203Z,6.90
2018-09-02T09:14:22.352Z,7.70
2018-09-02T09:16:53.545Z,7.63
2018-09-02T09:19:28.139Z,7.20
2018-09-02T09:21:57.954Z,6.97
2018-09-02T09:24:32.543Z,7.10
2018-09-02T09:27:02.956Z,7.35
2018-09-02T09:29:39.030Z,8.10
2018-09-02T09:32:12.189Z,9.23
2018-09-02T09:34:41.379Z,7.83
2018-09-02T09:37:15.513Z,8.58
2018-09-02T09:39:46.126Z,9.00
2018-09-02T09:42:18.201Z,12.95
2018-09-02T09:44:47.224Z,9.18
2018-09-02T09:47:19.845Z,8.05
2018-09-02T09:49:53.757Z,10.03
2018-09-02T09:52:24.839Z,10.08
2018-09-02T09:54:54.490Z,11.00
2018-09-02T09:57:23.219Z,11.38
2018-09-02T09:59:55.079Z,10.58
2018-09-02T10:02:27.327Z,10.50
2018-09-02T10:04:56.079Z,10.88
2018-09-02T10:07:32.082Z,11.45
2018-09-02T10:10:01.252Z,10.48
2018-09-02T10:12:30.170Z,11.05
2018-09-02T10:15:01.280Z,10.13
2018-09-02T10:17:30.307Z,11.03
2018-09-02T10:19:59.080Z,10.32
2018-09-02T10:22:30.339Z,10.75
2018-09-02T10:24:59.235Z,10.68
2018-09-02T10:27:28.183Z,10.40
2018-09-02T10:29:58.557Z,10.82
2018-09-02T10:32:39.065Z,13.10
2018-09-02T10:35:13.184Z,11.60
2018-09-02T10:37:43.826Z,17.07
2018-09-02T10:40:16.685Z,13.65
2018-09-02T10:42:45.601Z,13.00
2018-09-02T10:45:17.445Z,14.25
2018-09-02T10:47:46.430Z,13.70
2018-09-02T10:50:15.292Z,14.03
2018-09-02T10:52:43.987Z,15.38
2018-09-02T10:55:14.259Z,16.20
2018-09-02T10:57:57.777Z,15.15
2018-09-02T11:00:39.284Z,14.33
2018-09-02T11:03:13.153Z,16.05
2018-09-02T11:05:43.070Z,15.13
2018-09-02T11:08:13.915Z,14.30
2018-09-02T11:10:44.018Z,15.10
2018-09-02T11:13:19.540Z,13.73
2018-09-02T11:15:48.614Z,12.53
2018-09-02T11:18:21.291Z,11.83
2018-09-02T11:20:50.136Z,10.77
2018-09-02T11:23:18.905Z,11.45
2018-09-02T11:25:47.790Z,13.08
2018-09-02T11:28:16.549Z,13.50
2018-09-02T11:30:45.545Z,11.48
2018-09-02T11:33:14.956Z,11.80
2018-09-02T11:35:44.716Z,12.15
2018-09-02T11:38:17.677Z,14.30
2018-09-02T11:40:46.544Z,13.28
2018-09-02T11:43:26.156Z,13.73
2018-09-02T11:45:55.093Z,12.25
2018-09-02T11:48:24.006Z,12.82
2018-09-02T11:50:52.683Z,10.35
2018-09-02T11:53:21.380Z,11.10
2018-09-02T11:55:50.206Z,10.70
2018-09-02T11:58:19.192Z,11.68
2018-09-02T12:00:51.134Z,14.28
2018-09-02T12:03:24.703Z,15.50
2018-09-02T12:05:58.709Z,16.90
2018-09-02T12:08:31.732Z,16.75
2018-09-02T12:11:00.679Z,16.80
2018-09-02T12:13:29.627Z,19.40
2018-09-02T12:15:58.356Z,23.45
2018-09-02T12:18:27.209Z,30.90
2018-09-02T12:20:56.164Z,34.63
2018-09-02T12:23:25.262Z,36.03
2018-09-02T12:26:02.922Z,39.45
2018-09-02T12:28:34.381Z,37.60
2018-09-02T12:31:08.364Z,36.35
2018-09-02T12:33:42.609Z,34.67
2018-09-02T12:36:17.148Z,37.73
2018-09-02T12:38:45.974Z,31.90
2018-09-02T12:41:16.862Z,27.62
2018-09-02T12:43:49.802Z,29.05
2018-09-02T12:46:21.434Z,27.77
2018-09-02T12:48:55.393Z,29.65
2018-09-02T12:51:24.534Z,30.57
2018-09-02T12:53:54.629Z,38.30
2018-09-02T12:56:24.248Z,39.40
2018-09-02T12:58:55.195Z,37.28
2018-09-02T13:01:28.984Z,33.20
2018-09-02T13:03:58.085Z,29.82
2018-09-02T13:06:28.554Z,25.87
2018-09-02T13:08:57.701Z,23.38
2018-09-02T13:11:26.667Z,17.00
2018-09-02T13:13:55.375Z,18.67
2018-09-02T13:16:28.027Z,18.32
2018-09-02T13:19:08.752Z,17.37
2018-09-02T13:21:41.417Z,12.43
2018-09-02T13:24:20.966Z,10.87
2018-09-02T13:26:49.809Z,9.68
2018-09-02T13:29:18.783Z,9.23
2018-09-02T13:31:47.560Z,11.10
2018-09-02T13:34:16.284Z,8.63
2018-09-02T13:36:45.373Z,9.83
2018-09-02T13:39:17.880Z,9.50
2018-09-02T13:41:49.220Z,8.83
2018-09-02T13:44:18.495Z,8.90
2018-09-02T13:46:47.200Z,9.78
2018-09-02T13:49:16.274Z,8.77
2018-09-02T13:51:46.075Z,9.33
2018-09-02T13:54:21.423Z,9.28
2018-09-02T13:56:51.218Z,8.88
2018-09-02T13:59:24.046Z,9.85
2018-09-02T14:01:52.939Z,8.90
2018-09-02T14:04:28.827Z,8.40
2018-09-02T14:06:59.037Z,7.63
2018-09-02T14:09:28.000Z,7.13
2018-09-02T14:11:57.840Z,7.75
2018-09-02T14:14:32.798Z,10.07
2018-09-02T14:17:02.493Z,9.20
2018-09-02T14:19:32.224Z,7.90
2018-09-02T14:22:03.081Z,8.13
2018-09-02T14:24:31.987Z,8.10
2018-09-02T14:27:07.821Z,7.90
2018-09-02T14:29:38.311Z,8.28
2018-09-02T14:32:15.454Z,9.10
2018-09-02T14:34:47.139Z,9.80
2018-09-02T14:37:16.036Z,8.83
2018-09-02T14:39:49.217Z,10.28
2018-09-02T14:42:19.826Z,13.43
2018-09-02T14:44:48.602Z,12.03
2018-09-02T14:47:34.606Z,8.70
2018-09-02T14:50:12.285Z,8.80
2018-09-02T14:52:46.910Z,9.45
2018-09-02T14:55:22.482Z,9.90
2018-09-02T14:57:56.423Z,12.75
2018-09-02T15:00:25.304Z,15.72
2018-09-02T15:02:55.656Z,17.40
2018-09-02T15:05:25.969Z,16.57
2018-09-02T15:07:55.040Z,14.98
2018-09-02T15:10:23.727Z,15.20
2018-09-02T15:12:52.666Z,16.05
2018-09-02T15:15:21.387Z,15.10
2018-09-02T15:17:51.156Z,12.80
2018-09-02T15:20:19.846Z,10.53
2018-09-02T15:22:54.844Z,8.90
2018-09-02T15:25:23.673Z,7.50
2018-09-02T15:27:52.903Z,8.65
2018-09-02T15:30:25.152Z,8.53
2018-09-02T15:32:54.856Z,8.00
2018-09-02T15:35:29.022Z,8.00
2018-09-02T15:38:00.608Z,7.37
2018-09-02T15:40:29.429Z,8.33
2018-09-02T15:42:58.705Z,6.97
2018-09-02T15:45:40.258Z,7.97
2018-09-02T15:48:12.604Z,7.03
2018-09-02T15:50:41.606Z,7.10
2018-09-02T15:53:13.343Z,6.85
2018-09-02T15:55:44.809Z,7.15
2018-09-02T15:58:26.300Z,7.03
2018-09-02T16:00:55.699Z,7.28
2018-09-02T16:03:27.222Z,6.50
2018-09-02T16:05:56.312Z,7.22
2018-09-02T16:11:08.601Z,7.67
2018-09-02T16:13:37.707Z,7.70
2018-09-02T16:16:10.149Z,7.62
2018-09-02T16:18:45.050Z,7.27
2018-09-02T16:21:18.722Z,7.92
2018-09-02T16:23:51.120Z,7.67
2018-09-02T16:26:25.542Z,6.92
2018-09-02T16:28:55.278Z,7.25
2018-09-02T16:31:26.652Z,8.55
2018-09-02T16:33:58.524Z,8.00
2018-09-02T16:36:27.527Z,8.10
2018-09-02T16:38:58.298Z,7.53
2018-09-02T16:41:33.013Z,7.92
2018-09-02T16:44:07.527Z,8.75
2018-09-02T16:46:36.331Z,9.08
2018-09-02T16:49:10.730Z,8.73
2018-09-02T16:51:41.291Z,8.00
2018-09-02T16:54:13.981Z,8.20
2018-09-02T16:56:45.087Z,10.13
2018-09-02T16:59:16.636Z,7.58
2018-09-02T17:01:45.551Z,8.20
